createdAt,value
2023-03-26T00:01:58.498Z,0.20
2023-03-26T00:05:01.036Z,0.20
2023-03-26T00:08:03.726Z,0.10
2023-03-26T00:11:08.034Z,0.10
2023-03-26T00:14:14.187Z,0.15
2023-03-26T00:17:17.209Z,0.20
2023-03-26T00:20:20.070Z,0.28
2023-03-26T00:23:22.583Z,0.20
2023-03-26T00:26:25.837Z,0.10
2023-03-26T00:29:28.299Z,0.10
2023-03-26T00:32:31.486Z,0.10
2023-03-26T00:35:37.970Z,0.30
2023-03-26T00:38:41.817Z,0.20
2023-03-26T00:41:44.334Z,0.35
2023-03-26T00:44:47.181Z,0.43
2023-03-26T00:47:49.921Z,0.13
2023-03-26T00:50:52.400Z,0.10
2023-03-26T00:53:55.880Z,0.10
2023-03-26T00:56:58.670Z,0.20
2023-03-26T01:00:14.997Z,0.20
2023-03-26T01:03:27.683Z,0.20
2023-03-26T01:06:35.519Z,0.20
2023-03-26T01:09:45.169Z,0.20
2023-03-26T01:12:48.009Z,0.10
2023-03-26T01:15:51.384Z,0.20
2023-03-26T01:18:54.685Z,0.20
2023-03-26T01:21:58.341Z,0.10
2023-03-26T01:25:00.813Z,0.20
2023-03-26T01:28:08.940Z,0.20
2023-03-26T01:31:29.757Z,0.13
2023-03-26T01:34:47.092Z,0.20
2023-03-26T01:38:23.072Z,0.32
2023-03-26T01:41:33.989Z,0.20
2023-03-26T01:44:46.434Z,0.20
2023-03-26T01:47:49.372Z,0.35
2023-03-26T01:50:56.320Z,0.37
2023-03-26T01:54:02.866Z,0.22
2023-03-26T01:57:21.008Z,0.20
2023-03-26T02:00:33.650Z,0.30
2023-03-26T02:03:44.993Z,0.10
2023-03-26T02:07:06.131Z,0.37
2023-03-26T02:10:29.748Z,0.25
2023-03-26T02:13:32.671Z,0.20
2023-03-26T02:16:35.386Z,0.10
2023-03-26T02:19:42.392Z,0.20
2023-03-26T02:22:48.494Z,0.30
2023-03-26T02:25:53.973Z,0.20
2023-03-26T02:28:57.634Z,0.30
2023-03-26T02:32:02.308Z,0.20
2023-03-26T02:35:06.867Z,0.20
2023-03-26T02:38:10.524Z,0.30
2023-03-26T02:41:13.431Z,0.25
2023-03-26T02:44:29.713Z,0.20
2023-03-26T02:47:35.201Z,0.20
2023-03-26T02:51:04.682Z,0.30
2023-03-26T02:54:25.534Z,0.30
2023-03-26T02:57:38.195Z,0.20
2023-03-26T03:00:40.741Z,0.20
2023-03-26T03:04:04.401Z,0.30
2023-03-26T03:07:17.991Z,0.20
2023-03-26T03:10:22.088Z,0.23
2023-03-26T03:13:38.006Z,0.30
2023-03-26T03:16:41.243Z,0.20
2023-03-26T03:19:45.926Z,0.32
2023-03-26T03:22:49.066Z,0.30
2023-03-26T03:25:52.682Z,0.60
2023-03-26T03:28:57.626Z,1.40
2023-03-26T03:32:00.506Z,0.80
2023-03-26T03:35:13.686Z,0.50
2023-03-26T03:38:19.337Z,0.75
2023-03-26T03:41:24.779Z,0.40
2023-03-26T03:44:27.353Z,0.55
2023-03-26T03:47:30.044Z,0.60
2023-03-26T03:50:34.382Z,0.40
2023-03-26T03:53:56.673Z,0.80
2023-03-26T03:57:18.863Z,0.53
2023-03-26T04:00:38.365Z,0.52
2023-03-26T04:04:00.895Z,0.52
2023-03-26T04:07:17.594Z,0.50
2023-03-26T04:10:38.855Z,0.37
2023-03-26T04:13:47.294Z,0.40
2023-03-26T04:17:02.271Z,0.60
2023-03-26T04:20:08.798Z,0.60
2023-03-26T04:23:14.264Z,0.63
2023-03-26T04:26:21.030Z,0.57
2023-03-26T04:29:49.667Z,0.37
2023-03-26T04:32:58.844Z,0.70
2023-03-26T04:36:04.340Z,0.55
2023-03-26T04:39:13.332Z,0.57
2023-03-26T04:42:37.724Z,0.50
2023-03-26T04:46:03.427Z,0.70
2023-03-26T04:49:10.596Z,0.70
2023-03-26T04:52:15.028Z,0.80
2023-03-26T04:55:45.299Z,0.40
2023-03-26T04:59:00.852Z,0.50
2023-03-26T05:02:06.566Z,0.60
2023-03-26T05:05:18.912Z,0.60
2023-03-26T05:08:21.375Z,0.50
2023-03-26T05:11:24.265Z,0.47
2023-03-26T05:14:26.955Z,0.30
2023-03-26T05:17:31.068Z,0.50
2023-03-26T05:20:35.995Z,0.40
2023-03-26T05:23:41.464Z,0.40
2023-03-26T05:26:55.080Z,0.80
2023-03-26T05:30:03.751Z,0.60
2023-03-26T05:33:12.433Z,0.60
2023-03-26T05:36:28.317Z,0.57
2023-03-26T05:39:46.985Z,0.52
2023-03-26T05:43:10.288Z,0.50
2023-03-26T05:46:23.962Z,0.30
2023-03-26T05:49:26.733Z,0.40
2023-03-26T05:52:29.998Z,0.50
2023-03-26T05:56:04.995Z,0.47
2023-03-26T05:59:42.698Z,0.40
2023-03-26T06:03:16.570Z,0.40
2023-03-26T06:06:44.930Z,0.50
2023-03-26T06:09:47.670Z,0.60
2023-03-26T06:12:50.087Z,0.45
2023-03-26T06:15:53.440Z,0.40
2023-03-26T06:19:16.475Z,0.50
2023-03-26T06:22:41.940Z,0.40
2023-03-26T06:25:56.239Z,0.45
2023-03-26T06:29:21.945Z,0.40
2023-03-26T06:32:24.806Z,0.40
2023-03-26T06:35:36.444Z,0.30
2023-03-26T06:38:39.497Z,0.35
2023-03-26T06:41:43.183Z,0.50
2023-03-26T06:45:05.017Z,0.50
2023-03-26T06:48:10.261Z,0.30
2023-03-26T06:51:26.660Z,0.40
2023-03-26T06:54:49.020Z,0.32
2023-03-26T06:58:12.863Z,0.40
2023-03-26T07:01:41.589Z,0.43
2023-03-26T07:05:02.902Z,0.30
2023-03-26T07:08:25.861Z,0.50
2023-03-26T07:11:47.946Z,0.40
2023-03-26T07:15:27.565Z,0.40
2023-03-26T07:18:48.631Z,0.60
2023-03-26T07:21:56.199Z,0.20
2023-03-26T07:25:19.451Z,0.53
2023-03-26T07:28:41.771Z,0.30
2023-03-26T07:32:14.046Z,0.10
2023-03-26T07:35:56.864Z,0.28
2023-03-26T07:39:38.156Z,0.27
2023-03-26T07:43:41.157Z,0.40
2023-03-26T07:47:08.842Z,0.20
2023-03-26T07:50:36.308Z,0.35
2023-03-26T07:54:00.522Z,0.20
2023-03-26T07:57:36.777Z,0.33
2023-03-26T08:01:22.100Z,0.60
2023-03-26T08:05:01.446Z,0.40
2023-03-26T08:08:48.102Z,0.38
2023-03-26T08:12:30.007Z,0.40
2023-03-26T08:15:39.276Z,0.40
2023-03-26T08:19:00.095Z,0.30
2023-03-26T08:22:12.099Z,0.40
2023-03-26T08:25:27.649Z,0.47
2023-03-26T08:28:43.569Z,0.20
2023-03-26T08:31:49.191Z,0.37
2023-03-26T08:34:52.805Z,0.47
2023-03-26T08:37:55.425Z,0.40
2023-03-26T08:41:04.769Z,0.38
2023-03-26T08:44:51.642Z,0.40
2023-03-26T08:48:29.907Z,0.80
2023-03-26T08:51:41.850Z,0.50
2023-03-26T08:55:22.063Z,0.50
2023-03-26T08:58:53.679Z,0.50
2023-03-26T09:02:19.224Z,0.60
2023-03-26T09:05:54.906Z,0.43
2023-03-26T09:09:21.152Z,0.50
2023-03-26T09:12:40.367Z,0.40
2023-03-26T09:15:51.403Z,0.57
2023-03-26T09:19:31.601Z,0.40
2023-03-26T09:22:56.062Z,0.60
2023-03-26T09:26:01.746Z,0.50
2023-03-26T09:29:33.740Z,0.52
2023-03-26T09:32:51.852Z,0.70
2023-03-26T09:36:36.307Z,0.50
2023-03-26T09:40:11.420Z,0.30
2023-03-26T09:43:43.086Z,0.77
2023-03-26T09:47:13.422Z,0.60
2023-03-26T09:50:15.952Z,0.50
2023-03-26T09:53:24.196Z,0.50
2023-03-26T09:56:54.136Z,0.50
2023-03-26T10:00:16.384Z,0.30
2023-03-26T10:03:49.695Z,0.40
2023-03-26T10:07:17.597Z,0.82
2023-03-26T10:10:42.253Z,0.40
2023-03-26T10:13:54.075Z,0.50
2023-03-26T10:17:28.464Z,0.60
2023-03-26T10:20:41.265Z,0.57
2023-03-26T10:24:09.195Z,0.50
2023-03-26T10:27:31.159Z,0.60
2023-03-26T10:31:06.648Z,0.40
2023-03-26T10:34:46.946Z,0.53
2023-03-26T10:38:05.301Z,0.70
2023-03-26T10:41:28.128Z,0.60
2023-03-26T10:45:12.960Z,0.80
2023-03-26T10:48:43.084Z,0.73
2023-03-26T10:52:44.333Z,0.73
2023-03-26T10:55:54.699Z,0.40
2023-03-26T10:58:57.764Z,0.50
2023-03-26T11:02:30.541Z,0.40
2023-03-26T11:05:58.937Z,0.50
2023-03-26T11:09:04.168Z,0.80
2023-03-26T11:12:28.254Z,0.70
2023-03-26T11:15:39.383Z,0.40
2023-03-26T11:18:52.053Z,0.30
2023-03-26T11:22:00.241Z,0.50
2023-03-26T11:25:29.043Z,0.90
2023-03-26T11:28:31.730Z,0.77
2023-03-26T11:31:58.871Z,0.93
2023-03-26T11:35:09.206Z,0.80
2023-03-26T11:38:23.632Z,0.90
2023-03-26T11:41:28.704Z,0.53
2023-03-26T11:44:55.178Z,0.57
2023-03-26T11:48:22.395Z,1.00
2023-03-26T11:51:41.961Z,0.50
2023-03-26T11:54:48.388Z,0.47
2023-03-26T11:57:55.904Z,0.50
2023-03-26T12:00:59.143Z,0.73
2023-03-26T12:04:13.677Z,0.60
2023-03-26T12:07:30.090Z,0.60
2023-03-26T12:10:38.256Z,0.70
2023-03-26T12:13:50.717Z,0.40
2023-03-26T12:17:14.335Z,0.60
2023-03-26T12:20:26.344Z,0.90
2023-03-26T12:24:02.460Z,0.90
2023-03-26T12:27:28.439Z,0.83
2023-03-26T12:30:42.624Z,0.80
2023-03-26T12:34:06.379Z,0.50
2023-03-26T12:37:36.834Z,0.40
2023-03-26T12:40:40.306Z,0.70
2023-03-26T12:44:54.605Z,0.60
2023-03-26T12:48:00.605Z,0.40
2023-03-26T12:51:31.203Z,0.43
2023-03-26T12:54:58.700Z,0.82
2023-03-26T12:58:16.767Z,0.30
2023-03-26T13:01:43.592Z,0.40
2023-03-26T13:05:05.788Z,0.33
2023-03-26T13:08:15.236Z,0.40
2023-03-26T13:11:41.069Z,0.32
2023-03-26T13:14:49.836Z,0.30
2023-03-26T13:17:58.607Z,0.40
2023-03-26T13:21:07.422Z,0.60
2023-03-26T13:24:23.306Z,0.32
2023-03-26T13:27:41.945Z,0.52
2023-03-26T13:31:39.075Z,0.52
2023-03-26T13:35:14.096Z,0.50
2023-03-26T13:38:58.530Z,0.20
2023-03-26T13:42:08.017Z,0.20
2023-03-26T13:45:28.874Z,0.40
2023-03-26T13:48:42.384Z,0.35
2023-03-26T13:52:01.142Z,0.30
2023-03-26T13:55:22.311Z,0.40
2023-03-26T13:58:42.403Z,0.30
2023-03-26T14:01:57.085Z,0.30
2023-03-26T14:05:12.364Z,0.30
2023-03-26T14:08:41.069Z,0.20
2023-03-26T14:12:07.129Z,0.43
2023-03-26T14:15:49.605Z,0.20
2023-03-26T14:19:33.838Z,0.50
2023-03-26T14:22:51.506Z,0.60
2023-03-26T14:26:28.480Z,0.23
2023-03-26T14:29:56.666Z,0.53
2023-03-26T14:33:28.134Z,0.60
2023-03-26T14:36:43.365Z,0.50
2023-03-26T14:40:27.054Z,0.45
2023-03-26T14:43:51.653Z,0.40
2023-03-26T14:47:09.607Z,0.60
2023-03-26T14:50:46.709Z,0.30
2023-03-26T14:53:57.044Z,0.40
2023-03-26T14:57:36.564Z,0.32
2023-03-26T15:00:44.743Z,0.40
2023-03-26T15:04:05.681Z,0.30
2023-03-26T15:07:45.533Z,0.30
2023-03-26T15:11:13.702Z,0.20
2023-03-26T15:14:35.428Z,0.20
2023-03-26T15:18:13.863Z,0.20
2023-03-26T15:21:40.977Z,0.20
2023-03-26T15:25:02.809Z,0.17
2023-03-26T15:28:33.606Z,0.20
2023-03-26T15:32:03.111Z,0.20
2023-03-26T15:35:25.701Z,0.20
2023-03-26T15:38:38.576Z,0.50
2023-03-26T15:42:14.698Z,0.20
2023-03-26T15:45:36.962Z,0.20
2023-03-26T15:49:02.295Z,0.20
2023-03-26T15:52:20.358Z,0.27
2023-03-26T15:55:36.663Z,0.30
2023-03-26T15:59:16.331Z,0.30
2023-03-26T16:02:54.712Z,0.20
2023-03-26T16:06:20.848Z,0.40
2023-03-26T16:09:32.648Z,0.43
2023-03-26T16:12:45.987Z,0.47
2023-03-26T16:16:11.331Z,0.30
2023-03-26T16:19:20.288Z,0.30
2023-03-26T16:22:32.494Z,0.20
2023-03-26T16:26:00.897Z,0.30
2023-03-26T16:29:19.433Z,0.30
2023-03-26T16:32:35.556Z,0.30
2023-03-26T16:35:48.092Z,0.38
2023-03-26T16:39:15.851Z,0.30
2023-03-26T16:42:31.813Z,0.70
2023-03-26T16:45:57.295Z,0.50
2023-03-26T16:49:25.294Z,0.50
2023-03-26T16:52:50.613Z,0.40
2023-03-26T16:55:59.908Z,0.50
2023-03-26T16:59:09.348Z,0.50
2023-03-26T17:02:26.447Z,0.60
2023-03-26T17:05:44.942Z,0.60
2023-03-26T17:09:01.391Z,0.70
2023-03-26T17:12:30.075Z,1.10
2023-03-26T17:15:48.831Z,1.20
2023-03-26T17:18:54.478Z,1.77
2023-03-26T17:22:04.269Z,2.38
2023-03-26T17:25:29.275Z,1.60
2023-03-26T17:29:17.104Z,1.15
2023-03-26T17:32:21.611Z,1.43
2023-03-26T17:35:36.790Z,1.50
2023-03-26T17:38:40.586Z,1.92
2023-03-26T17:41:55.483Z,2.63
2023-03-26T17:44:59.368Z,2.20
2023-03-26T17:48:25.370Z,2.30
2023-03-26T17:51:28.140Z,1.83
2023-03-26T17:54:49.198Z,2.40
2023-03-26T17:57:57.175Z,2.95
2023-03-26T18:01:07.058Z,3.75
2023-03-26T18:04:21.268Z,3.43
2023-03-26T18:07:57.997Z,3.70
2023-03-26T18:11:23.837Z,4.68
2023-03-26T18:14:29.625Z,4.25
2023-03-26T18:17:40.282Z,3.10
2023-03-26T18:20:47.246Z,3.07
2023-03-26T18:23:50.945Z,2.40
2023-03-26T18:26:58.537Z,2.97
2023-03-26T18:30:13.608Z,3.63
2023-03-26T18:33:20.165Z,3.35
2023-03-26T18:36:25.924Z,3.13
2023-03-26T18:39:29.003Z,3.07
2023-03-26T18:42:32.961Z,2.95
2023-03-26T18:45:40.493Z,2.88
2023-03-26T18:48:44.352Z,2.50
2023-03-26T18:51:56.762Z,2.40
2023-03-26T18:55:03.250Z,2.50
2023-03-26T18:58:31.253Z,1.95
2023-03-26T19:01:36.636Z,1.90
2023-03-26T19:04:45.326Z,1.90
2023-03-26T19:07:50.235Z,2.17
2023-03-26T19:10:54.862Z,2.40
2023-03-26T19:14:07.815Z,1.90
2023-03-26T19:17:12.055Z,2.17
2023-03-26T19:20:46.185Z,2.10
2023-03-26T19:23:49.616Z,1.97
2023-03-26T19:26:53.016Z,2.10
2023-03-26T19:29:56.260Z,1.92
2023-03-26T19:33:13.486Z,2.00
2023-03-26T19:36:29.704Z,1.85
2023-03-26T19:39:38.152Z,1.60
2023-03-26T19:42:44.735Z,1.80
2023-03-26T19:45:59.749Z,1.50
2023-03-26T19:49:04.290Z,1.77
2023-03-26T19:52:17.451Z,1.65
2023-03-26T19:55:27.410Z,1.73
2023-03-26T19:58:31.130Z,1.87
2023-03-26T20:01:34.004Z,2.10
2023-03-26T20:04:36.834Z,2.00
2023-03-26T20:07:41.367Z,2.40
2023-03-26T20:10:44.350Z,3.57
2023-03-26T20:13:47.813Z,3.50
2023-03-26T20:16:50.261Z,2.50
2023-03-26T20:19:54.271Z,2.00
2023-03-26T20:22:56.978Z,1.80
2023-03-26T20:25:59.671Z,1.70
2023-03-26T20:29:04.036Z,1.60
2023-03-26T20:32:19.159Z,1.83
2023-03-26T20:35:36.204Z,2.50
2023-03-26T20:38:40.339Z,1.90
2023-03-26T20:41:50.179Z,1.43
2023-03-26T20:44:53.501Z,1.40
2023-03-26T20:47:56.113Z,1.30
2023-03-26T20:50:58.903Z,1.20
2023-03-26T20:54:02.255Z,1.20
2023-03-26T20:57:05.540Z,1.53
2023-03-26T21:00:22.141Z,1.60
2023-03-26T21:03:24.636Z,1.92
2023-03-26T21:06:27.310Z,2.03
2023-03-26T21:09:34.143Z,2.00
2023-03-26T21:12:45.621Z,1.87
2023-03-26T21:15:49.064Z,1.80
2023-03-26T21:18:51.822Z,1.85
2023-03-26T21:22:19.941Z,2.25
2023-03-26T21:26:01.550Z,2.28
2023-03-26T21:29:04.150Z,1.60
2023-03-26T21:32:07.177Z,1.60
2023-03-26T21:35:10.603Z,1.50
2023-03-26T21:38:13.605Z,1.05
2023-03-26T21:41:36.006Z,0.50
2023-03-26T21:44:40.162Z,0.30
2023-03-26T21:47:43.549Z,0.40
2023-03-26T21:50:47.635Z,0.20
2023-03-26T21:53:50.647Z,0.20
2023-03-26T21:57:00.061Z,0.20
2023-03-26T22:00:15.291Z,0.10
2023-03-26T22:03:31.922Z,0.20
2023-03-26T22:06:43.786Z,0.17
2023-03-26T22:09:46.585Z,0.13
2023-03-26T22:12:49.379Z,0.20
2023-03-26T22:15:51.987Z,0.13
2023-03-26T22:18:54.606Z,0.13
2023-03-26T22:21:58.400Z,0.38
2023-03-26T22:25:01.209Z,0.20
2023-03-26T22:28:04.463Z,0.40
2023-03-26T22:31:08.675Z,0.37
2023-03-26T22:34:11.760Z,0.40
2023-03-26T22:37:14.456Z,0.30
2023-03-26T22:40:17.972Z,0.30
2023-03-26T22:43:20.572Z,0.28
2023-03-26T22:46:23.700Z,0.33
2023-03-26T22:49:27.462Z,0.40
2023-03-26T22:52:30.484Z,0.30
2023-03-26T22:55:33.130Z,0.30
2023-03-26T22:58:35.588Z,0.45
2023-03-26T23:01:38.128Z,0.40
2023-03-26T23:04:42.653Z,0.40
2023-03-26T23:07:46.188Z,0.50
2023-03-26T23:10:48.770Z,0.50
2023-03-26T23:13:51.814Z,0.40
2023-03-26T23:16:55.042Z,0.40
2023-03-26T23:19:57.531Z,0.40
2023-03-26T23:23:01.223Z,0.60
2023-03-26T23:26:04.742Z,0.43
2023-03-26T23:29:07.506Z,0.70
2023-03-26T23:32:23.783Z,0.70
2023-03-26T23:35:27.813Z,0.60
2023-03-26T23:38:44.040Z,0.75
2023-03-26T23:41:47.145Z,0.60
2023-03-26T23:44:49.653Z,0.60
2023-03-26T23:47:52.191Z,0.53
2023-03-26T23:51:03.178Z,0.57
2023-03-26T23:54:08.760Z,0.50
2023-03-26T23:57:11.694Z,0.70
